createdAt,value
2017-08-03T00:01:39.279Z,19.27
2017-08-03T00:04:07.355Z,19.70
2017-08-03T00:06:35.447Z,17.93
2017-08-03T00:09:03.538Z,19.63
2017-08-03T00:11:31.635Z,19.10
2017-08-03T00:13:59.713Z,19.60
2017-08-03T00:16:27.804Z,18.87
2017-08-03T00:18:55.904Z,18.73
2017-08-03T00:21:23.991Z,18.80
2017-08-03T00:23:52.071Z,17.80
2017-08-03T00:26:20.152Z,18.63
2017-08-03T00:28:48.245Z,19.87
2017-08-03T00:31:16.333Z,18.17
2017-08-03T00:33:44.424Z,20.57
2017-08-03T00:36:12.506Z,19.67
2017-08-03T00:38:40.612Z,20.90
2017-08-03T00:41:08.701Z,18.53
2017-08-03T00:43:36.798Z,19.50
2017-08-03T00:46:04.884Z,18.77
2017-08-03T00:48:32.978Z,19.70
2017-08-03T00:51:01.053Z,19.73
2017-08-03T00:53:29.144Z,18.63
2017-08-03T00:55:57.235Z,20.80
2017-08-03T00:58:25.333Z,22.00
2017-08-03T01:00:53.420Z,20.17
2017-08-03T01:03:21.520Z,21.57
2017-08-03T01:05:49.595Z,22.50
2017-08-03T01:08:17.679Z,20.47
2017-08-03T01:10:45.782Z,20.47
2017-08-03T01:13:13.871Z,22.40
2017-08-03T01:15:41.971Z,16.90
2017-08-03T01:18:10.067Z,18.50
2017-08-03T01:20:38.154Z,20.97
2017-08-03T01:23:06.250Z,18.70
2017-08-03T01:25:34.339Z,21.00
2017-08-03T01:28:02.423Z,21.40
2017-08-03T01:30:30.503Z,19.73
2017-08-03T01:32:58.586Z,19.93
2017-08-03T01:35:26.680Z,19.37
2017-08-03T01:37:54.770Z,20.53
2017-08-03T01:40:22.852Z,18.33
2017-08-03T01:42:50.940Z,17.97
2017-08-03T01:45:19.140Z,17.80
2017-08-03T01:47:47.231Z,16.60
2017-08-03T01:50:15.307Z,18.70
2017-08-03T01:52:43.399Z,20.20
2017-08-03T01:55:11.479Z,19.57
2017-08-03T01:57:39.575Z,19.13
2017-08-03T02:00:07.667Z,20.23
2017-08-03T02:02:35.755Z,20.83
2017-08-03T02:05:03.840Z,21.10
2017-08-03T02:07:31.927Z,19.13
2017-08-03T02:10:00.187Z,19.73
2017-08-03T02:12:28.301Z,18.57
2017-08-03T02:14:57.143Z,18.10
2017-08-03T02:17:25.226Z,16.23
2017-08-03T02:19:53.310Z,17.20
2017-08-03T02:22:21.395Z,18.67
2017-08-03T02:24:49.496Z,16.20
2017-08-03T02:27:17.578Z,18.40
2017-08-03T02:29:45.684Z,16.47
2017-08-03T02:32:13.770Z,15.73
2017-08-03T02:34:41.844Z,17.63
2017-08-03T02:37:09.930Z,17.37
2017-08-03T02:39:38.040Z,15.87
2017-08-03T02:42:06.127Z,14.30
2017-08-03T02:44:34.218Z,17.03
2017-08-03T02:47:02.300Z,15.40
2017-08-03T02:49:30.376Z,16.00
2017-08-03T02:51:58.472Z,19.67
2017-08-03T02:54:26.590Z,21.80
2017-08-03T02:56:54.745Z,18.13
2017-08-03T02:59:22.933Z,19.73
2017-08-03T03:01:51.020Z,18.80
2017-08-03T03:04:19.105Z,20.07
2017-08-03T03:06:47.195Z,21.40
2017-08-03T03:09:15.287Z,20.33
2017-08-03T03:11:43.376Z,21.70
2017-08-03T03:14:11.467Z,20.50
2017-08-03T03:16:39.578Z,23.10
2017-08-03T03:19:07.674Z,22.40
2017-08-03T03:21:35.763Z,20.97
2017-08-03T03:24:03.863Z,21.27
2017-08-03T03:26:31.919Z,22.43
2017-08-03T03:29:00.016Z,21.40
2017-08-03T03:31:28.121Z,22.90
2017-08-03T03:33:56.212Z,22.43
2017-08-03T03:36:24.303Z,21.10
2017-08-03T03:38:52.395Z,21.10
2017-08-03T03:41:20.475Z,20.13
2017-08-03T03:43:48.604Z,21.37
2017-08-03T03:46:16.683Z,18.50
2017-08-03T03:48:44.779Z,20.40
2017-08-03T03:51:12.877Z,18.80
2017-08-03T03:53:40.955Z,20.80
2017-08-03T03:56:09.035Z,21.57
2017-08-03T03:58:37.131Z,20.50
2017-08-03T04:01:05.227Z,21.53
2017-08-03T04:03:33.570Z,22.43
2017-08-03T04:06:01.837Z,20.83
2017-08-03T04:08:30.116Z,19.17
2017-08-03T04:10:58.203Z,21.23
2017-08-03T04:13:26.300Z,20.27
2017-08-03T04:15:54.392Z,20.83
2017-08-03T04:18:22.495Z,21.63
2017-08-03T04:20:50.575Z,19.20
2017-08-03T04:23:18.666Z,19.93
2017-08-03T04:25:46.759Z,19.37
2017-08-03T04:28:14.853Z,20.13
2017-08-03T04:30:43.150Z,18.57
2017-08-03T04:33:11.244Z,18.70
2017-08-03T04:35:39.450Z,20.20
2017-08-03T04:38:07.541Z,19.63
2017-08-03T04:40:35.725Z,18.10
2017-08-03T04:43:03.812Z,18.57
2017-08-03T04:45:31.907Z,19.37
2017-08-03T04:47:59.994Z,16.40
2017-08-03T04:50:28.095Z,19.53
2017-08-03T04:52:56.175Z,20.27
2017-08-03T04:55:24.263Z,19.20
2017-08-03T04:57:52.349Z,19.20
2017-08-03T05:00:20.450Z,20.27
2017-08-03T05:02:48.534Z,18.20
2017-08-03T05:05:16.623Z,17.20
2017-08-03T05:07:44.708Z,18.20
2017-08-03T05:10:12.800Z,17.97
2017-08-03T05:12:40.880Z,18.43
2017-08-03T05:15:08.983Z,20.50
2017-08-03T05:17:37.299Z,20.30
2017-08-03T05:20:05.575Z,19.27
2017-08-03T05:22:33.851Z,18.27
2017-08-03T05:25:01.936Z,18.07
2017-08-03T05:27:30.200Z,19.70
2017-08-03T05:29:58.275Z,17.73
2017-08-03T05:32:26.372Z,18.00
2017-08-03T05:34:54.452Z,18.13
2017-08-03T05:37:22.547Z,20.60
2017-08-03T05:39:50.628Z,20.73
2017-08-03T05:42:18.715Z,21.53
2017-08-03T05:44:46.843Z,22.57
2017-08-03T05:47:15.462Z,21.80
2017-08-03T05:49:43.648Z,20.47
2017-08-03T05:52:11.735Z,21.97
2017-08-03T05:54:39.835Z,20.67
2017-08-03T05:57:07.924Z,19.70
2017-08-03T05:59:35.994Z,22.17
2017-08-03T06:02:04.120Z,19.77
2017-08-03T06:04:32.207Z,21.07
2017-08-03T06:07:00.296Z,21.70
2017-08-03T06:09:28.397Z,20.10
2017-08-03T06:11:56.488Z,19.33
2017-08-03T06:14:24.568Z,21.70
2017-08-03T06:16:52.654Z,19.73
2017-08-03T06:19:20.746Z,21.53
2017-08-03T06:21:48.827Z,22.60
2017-08-03T06:24:16.922Z,21.90
2017-08-03T06:26:45.012Z,22.93
2017-08-03T06:29:13.088Z,17.27
2017-08-03T06:31:41.185Z,21.20
2017-08-03T06:34:09.284Z,21.07
2017-08-03T06:36:37.360Z,17.70
2017-08-03T06:39:05.442Z,21.30
2017-08-03T06:41:33.551Z,23.90
2017-08-03T06:44:01.647Z,21.83
2017-08-03T06:46:29.769Z,22.20
2017-08-03T06:48:57.855Z,21.00
2017-08-03T06:51:25.939Z,20.73
2017-08-03T06:53:54.038Z,19.43
2017-08-03T06:56:22.123Z,18.90
2017-08-03T06:58:50.227Z,18.40
2017-08-03T07:01:18.307Z,27.17
2017-08-03T07:03:46.408Z,20.60
2017-08-03T07:06:14.493Z,22.83
2017-08-03T07:08:42.593Z,20.60
2017-08-03T07:11:10.675Z,20.10
2017-08-03T07:13:38.791Z,20.33
2017-08-03T07:16:06.878Z,22.60
2017-08-03T07:18:35.207Z,20.60
2017-08-03T07:21:03.294Z,23.73
2017-08-03T07:23:31.376Z,21.37
2017-08-03T07:25:59.472Z,20.90
2017-08-03T07:28:27.550Z,22.40
2017-08-03T07:30:55.643Z,20.20
2017-08-03T07:33:23.735Z,24.87
2017-08-03T07:35:51.827Z,23.63
2017-08-03T07:38:19.923Z,20.53
2017-08-03T07:40:48.014Z,26.63
2017-08-03T07:43:16.111Z,27.20
2017-08-03T07:45:44.195Z,23.70
2017-08-03T07:48:12.300Z,29.10
2017-08-03T07:50:40.391Z,29.33
2017-08-03T07:53:08.481Z,29.47
2017-08-03T07:55:36.564Z,25.63
2017-08-03T07:58:04.649Z,29.97
2017-08-03T08:00:32.755Z,23.90
2017-08-03T08:03:00.840Z,30.17
2017-08-03T08:05:28.943Z,24.27
2017-08-03T08:07:57.015Z,23.90
2017-08-03T08:10:25.174Z,25.67
2017-08-03T08:12:53.256Z,23.47
2017-08-03T08:15:21.423Z,28.40
2017-08-03T08:17:49.584Z,25.13
2017-08-03T08:20:18.592Z,25.70
2017-08-03T08:22:46.678Z,24.10
2017-08-03T08:25:14.796Z,25.20
2017-08-03T08:27:42.929Z,23.20
2017-08-03T08:30:11.042Z,29.20
2017-08-03T08:32:39.134Z,25.77
2017-08-03T08:35:07.249Z,31.77
2017-08-03T08:37:35.363Z,29.80
2017-08-03T08:40:03.513Z,28.40
2017-08-03T08:42:31.607Z,34.30
2017-08-03T08:44:59.706Z,28.27
2017-08-03T08:47:27.792Z,28.03
2017-08-03T08:49:55.891Z,30.47
2017-08-03T08:52:24.708Z,30.83
2017-08-03T08:54:52.791Z,32.07
2017-08-03T08:57:20.890Z,32.47
2017-08-03T08:59:49.008Z,30.57
2017-08-03T09:02:17.103Z,31.70
2017-08-03T09:04:45.198Z,31.90
2017-08-03T09:07:13.291Z,36.90
2017-08-03T09:09:41.421Z,34.10
2017-08-03T09:12:09.511Z,33.50
2017-08-03T09:14:37.626Z,34.40
2017-08-03T09:17:05.732Z,30.57
2017-08-03T09:19:33.828Z,34.67
2017-08-03T09:22:01.916Z,32.97
2017-08-03T09:24:30.003Z,30.40
2017-08-03T09:26:58.087Z,31.63
2017-08-03T09:29:26.399Z,32.03
2017-08-03T09:31:54.485Z,30.50
2017-08-03T09:34:22.576Z,28.30
2017-08-03T09:36:50.666Z,32.03
2017-08-03T09:39:18.760Z,32.63
2017-08-03T09:41:46.836Z,33.03
2017-08-03T09:44:14.929Z,35.07
2017-08-03T09:46:43.019Z,34.27
2017-08-03T09:49:11.106Z,30.67
2017-08-03T09:51:39.201Z,32.30
2017-08-03T09:54:07.307Z,31.60
2017-08-03T09:56:35.382Z,30.83
2017-08-03T09:59:03.483Z,28.83
2017-08-03T10:01:31.574Z,30.03
2017-08-03T10:03:59.679Z,31.47
2017-08-03T10:06:27.761Z,28.07
2017-08-03T10:08:55.847Z,27.10
2017-08-03T10:11:23.934Z,27.23
2017-08-03T10:13:52.038Z,30.20
2017-08-03T10:16:20.133Z,27.63
2017-08-03T10:18:48.275Z,32.13
2017-08-03T10:21:16.387Z,27.50
2017-08-03T10:23:44.481Z,22.90
2017-08-03T10:26:12.596Z,24.80
2017-08-03T10:28:40.697Z,27.43
2017-08-03T10:31:08.775Z,27.30
2017-08-03T10:33:36.863Z,23.17
2017-08-03T10:36:04.975Z,21.07
2017-08-03T10:38:33.060Z,24.60
2017-08-03T10:41:01.155Z,23.00
2017-08-03T10:43:29.247Z,24.07
2017-08-03T10:45:57.340Z,22.90
2017-08-03T10:48:25.415Z,21.63
2017-08-03T10:50:53.513Z,23.43
2017-08-03T10:53:21.621Z,22.27
2017-08-03T10:55:49.714Z,21.50
2017-08-03T10:58:17.800Z,19.50
2017-08-03T11:00:45.903Z,19.47
2017-08-03T11:03:13.997Z,20.03
2017-08-03T11:05:42.089Z,18.37
2017-08-03T11:08:10.179Z,16.57
2017-08-03T11:10:38.274Z,16.20
2017-08-03T11:13:06.365Z,17.47
2017-08-03T11:15:34.455Z,16.70
2017-08-03T11:18:02.535Z,17.67
2017-08-03T11:20:30.617Z,15.07
2017-08-03T11:22:58.704Z,16.90
2017-08-03T11:25:26.789Z,15.00
2017-08-03T11:27:54.888Z,15.03
2017-08-03T11:30:22.967Z,14.30
2017-08-03T11:32:51.061Z,13.90
2017-08-03T11:35:19.136Z,13.60
2017-08-03T11:37:47.229Z,12.93
2017-08-03T11:40:15.324Z,13.17
2017-08-03T11:42:43.410Z,13.57
2017-08-03T11:45:11.493Z,12.40
2017-08-03T11:47:39.580Z,12.83
2017-08-03T11:50:07.671Z,11.50
2017-08-03T11:52:35.767Z,12.53
2017-08-03T11:55:03.856Z,10.70
2017-08-03T11:57:31.948Z,11.17
2017-08-03T12:00:00.019Z,11.33
2017-08-03T12:02:28.129Z,11.50
2017-08-03T12:04:56.199Z,11.70
2017-08-03T12:07:24.286Z,12.77
2017-08-03T12:09:52.375Z,10.83
2017-08-03T12:12:20.472Z,11.10
2017-08-03T12:14:48.557Z,11.30
2017-08-03T12:17:16.653Z,10.80
2017-08-03T12:19:44.743Z,11.53
2017-08-03T12:22:12.839Z,11.90
2017-08-03T12:24:40.919Z,11.50
2017-08-03T12:27:09.015Z,11.93
2017-08-03T12:29:37.098Z,12.30
2017-08-03T12:32:05.179Z,11.60
2017-08-03T12:34:33.279Z,11.33
2017-08-03T12:37:01.354Z,13.10
2017-08-03T12:39:29.449Z,10.40
2017-08-03T12:41:57.526Z,12.53
2017-08-03T12:44:25.621Z,11.13
2017-08-03T12:46:53.704Z,11.90
2017-08-03T12:49:21.813Z,10.77
2017-08-03T12:51:49.908Z,12.00
2017-08-03T12:54:17.996Z,11.63
2017-08-03T12:56:46.075Z,11.73
2017-08-03T12:59:14.186Z,12.13
2017-08-03T13:01:42.267Z,12.10
2017-08-03T13:04:10.372Z,10.63
2017-08-03T13:06:38.453Z,10.10
2017-08-03T13:09:06.535Z,11.30
2017-08-03T13:11:34.636Z,10.70
2017-08-03T13:14:02.737Z,10.20
2017-08-03T13:16:30.820Z,9.97
2017-08-03T13:18:58.903Z,9.67
2017-08-03T13:21:26.988Z,10.23
2017-08-03T13:23:55.072Z,10.20
2017-08-03T13:26:23.170Z,10.70
2017-08-03T13:28:51.269Z,10.80
2017-08-03T13:31:20.255Z,9.03
2017-08-03T13:33:48.341Z,9.77
2017-08-03T13:36:16.426Z,9.47
2017-08-03T13:38:44.501Z,9.73
2017-08-03T13:41:12.603Z,9.33
2017-08-03T13:43:40.709Z,9.50
2017-08-03T13:46:09.004Z,8.63
2017-08-03T13:48:37.069Z,7.60
2017-08-03T13:51:05.152Z,9.37
2017-08-03T13:53:33.241Z,9.60
2017-08-03T13:56:01.321Z,9.83
2017-08-03T13:58:29.404Z,8.53
2017-08-03T14:00:57.489Z,8.83
2017-08-03T14:03:25.583Z,9.10
2017-08-03T14:05:53.663Z,8.80
2017-08-03T14:08:21.750Z,9.17
2017-08-03T14:10:49.851Z,8.80
2017-08-03T14:13:17.926Z,8.10
2017-08-03T14:15:46.028Z,9.20
2017-08-03T14:18:14.122Z,7.87
2017-08-03T14:20:42.203Z,9.03
2017-08-03T14:23:10.275Z,8.70
2017-08-03T14:25:38.372Z,9.67
2017-08-03T14:28:06.457Z,9.40
2017-08-03T14:30:34.556Z,8.30
2017-08-03T14:33:02.635Z,8.20
2017-08-03T14:35:30.938Z,8.90
2017-08-03T14:37:59.023Z,8.10
2017-08-03T14:40:27.104Z,8.73
2017-08-03T14:42:55.190Z,8.40
2017-08-03T14:45:23.263Z,8.60
2017-08-03T14:47:51.349Z,8.40
2017-08-03T14:50:19.427Z,8.93
2017-08-03T14:52:47.507Z,8.73
2017-08-03T14:55:15.589Z,8.83
2017-08-03T14:57:43.690Z,8.13
2017-08-03T15:00:11.771Z,8.47
2017-08-03T15:02:39.851Z,10.20
2017-08-03T15:05:07.939Z,8.53
2017-08-03T15:07:36.023Z,9.53
2017-08-03T15:10:04.146Z,8.57
2017-08-03T15:12:32.224Z,9.30
2017-08-03T15:15:00.312Z,10.37
2017-08-03T15:17:28.405Z,10.03
2017-08-03T15:19:56.478Z,9.17
2017-08-03T15:22:24.779Z,8.57
2017-08-03T15:24:52.868Z,8.87
2017-08-03T15:27:20.953Z,8.73
2017-08-03T15:29:49.039Z,9.10
2017-08-03T15:32:17.116Z,9.77
2017-08-03T15:34:45.200Z,9.50
2017-08-03T15:37:13.287Z,9.07
2017-08-03T15:39:41.360Z,8.83
2017-08-03T15:42:09.460Z,9.47
2017-08-03T15:44:37.544Z,11.43
2017-08-03T15:47:05.634Z,10.53
2017-08-03T15:49:33.771Z,10.60
2017-08-03T15:52:01.860Z,10.63
2017-08-03T15:54:29.957Z,11.50
2017-08-03T15:56:58.048Z,10.73
2017-08-03T15:59:26.137Z,10.60
2017-08-03T16:01:54.215Z,11.33
2017-08-03T16:04:22.318Z,10.70
2017-08-03T16:06:50.406Z,9.13
2017-08-03T16:09:18.500Z,11.00
2017-08-03T16:11:46.619Z,10.10
2017-08-03T16:14:14.719Z,10.40
2017-08-03T16:16:42.815Z,11.07
2017-08-03T16:19:10.913Z,10.57
2017-08-03T16:21:39.007Z,11.93
2017-08-03T16:24:07.111Z,10.80
2017-08-03T16:26:35.191Z,11.90
2017-08-03T16:29:03.299Z,10.93
2017-08-03T16:31:31.397Z,13.13
2017-08-03T16:33:59.480Z,14.40
2017-08-03T16:36:27.570Z,12.07
2017-08-03T16:38:55.651Z,13.30
2017-08-03T16:41:23.764Z,11.77
2017-08-03T16:43:51.900Z,12.73
2017-08-03T16:46:20.041Z,11.87
2017-08-03T16:48:48.153Z,12.40
2017-08-03T16:51:16.246Z,12.50
2017-08-03T16:53:44.330Z,12.07
2017-08-03T16:56:12.429Z,12.77
2017-08-03T16:58:40.515Z,11.17
2017-08-03T17:01:08.607Z,12.57
2017-08-03T17:03:36.716Z,12.70
2017-08-03T17:06:04.817Z,11.17
2017-08-03T17:08:32.895Z,10.73
2017-08-03T17:11:00.971Z,11.67
2017-08-03T17:13:29.071Z,11.40
2017-08-03T17:15:57.156Z,12.50
2017-08-03T17:18:25.251Z,11.93
2017-08-03T17:20:53.332Z,15.00
2017-08-03T17:23:21.423Z,13.50
2017-08-03T17:25:49.572Z,14.47
2017-08-03T17:28:17.659Z,12.53
2017-08-03T17:30:45.735Z,13.07
2017-08-03T17:33:13.878Z,12.90
2017-08-03T17:35:41.942Z,13.50
2017-08-03T17:38:10.040Z,11.73
2017-08-03T17:40:38.216Z,12.10
2017-08-03T17:43:06.280Z,12.37
2017-08-03T17:45:34.385Z,12.40
2017-08-03T17:48:02.468Z,12.93
2017-08-03T17:50:30.563Z,12.90
2017-08-03T17:52:58.651Z,12.47
2017-08-03T17:55:27.656Z,12.47
2017-08-03T17:57:55.732Z,12.97
2017-08-03T18:00:23.835Z,12.50
2017-08-03T18:02:51.970Z,13.20
2017-08-03T18:05:20.064Z,12.77
2017-08-03T18:07:48.151Z,13.00
2017-08-03T18:10:16.297Z,14.23
2017-08-03T18:12:44.372Z,13.40
2017-08-03T18:15:12.459Z,13.43
2017-08-03T18:17:40.538Z,12.90
2017-08-03T18:20:08.630Z,12.30
2017-08-03T18:22:36.722Z,12.50
2017-08-03T18:25:04.808Z,11.37
2017-08-03T18:27:32.930Z,11.87
2017-08-03T18:30:01.003Z,12.60
2017-08-03T18:32:29.084Z,14.37
2017-08-03T18:34:57.168Z,13.53
2017-08-03T18:37:25.307Z,13.90
2017-08-03T18:40:12.616Z,13.03
2017-08-03T18:42:40.720Z,12.90
2017-08-03T18:45:08.870Z,12.10
2017-08-03T18:47:36.923Z,11.40
2017-08-03T18:50:05.018Z,11.40
2017-08-03T18:52:33.095Z,12.33
2017-08-03T18:55:01.199Z,11.50
2017-08-03T18:57:29.295Z,11.90
2017-08-03T18:59:57.398Z,12.70
2017-08-03T19:02:25.513Z,11.20
2017-08-03T19:04:53.654Z,13.70
2017-08-03T19:07:21.784Z,13.17
2017-08-03T19:09:49.870Z,11.80
2017-08-03T19:12:17.953Z,14.03
2017-08-03T19:14:46.116Z,11.93
2017-08-03T19:17:14.237Z,14.30
2017-08-03T19:19:42.365Z,13.00
2017-08-03T19:22:10.439Z,13.70
2017-08-03T19:24:38.510Z,13.63
2017-08-03T19:27:06.661Z,13.77
2017-08-03T19:29:34.727Z,13.70
2017-08-03T19:32:02.815Z,14.03
2017-08-03T19:34:30.907Z,12.73
2017-08-03T19:36:58.997Z,12.60
2017-08-03T19:39:27.083Z,13.87
2017-08-03T19:41:55.179Z,12.87
2017-08-03T19:44:23.259Z,13.83
2017-08-03T19:46:51.344Z,13.70
2017-08-03T19:49:19.427Z,13.63
2017-08-03T19:51:47.502Z,13.57
2017-08-03T19:54:15.597Z,13.77
2017-08-03T19:56:43.720Z,14.40
2017-08-03T19:59:11.799Z,13.73
2017-08-03T20:01:39.912Z,13.10
2017-08-03T20:04:08.151Z,14.03
2017-08-03T20:06:47.024Z,14.13
2017-08-03T20:09:17.891Z,14.20
2017-08-03T20:11:46.002Z,14.40
2017-08-03T20:14:14.124Z,13.67
2017-08-03T20:16:42.228Z,14.00
2017-08-03T20:19:10.318Z,16.00
2017-08-03T20:21:38.408Z,14.53
2017-08-03T20:24:06.556Z,15.00
2017-08-03T20:26:34.705Z,14.17
2017-08-03T20:29:02.777Z,16.80
2017-08-03T20:31:30.872Z,15.63
2017-08-03T20:33:59.300Z,16.33
2017-08-03T20:36:27.400Z,15.33
2017-08-03T20:38:55.483Z,15.70
2017-08-03T20:41:23.572Z,14.30
2017-08-03T20:43:51.751Z,14.47
2017-08-03T20:46:19.854Z,13.83
2017-08-03T20:48:47.943Z,13.00
2017-08-03T20:51:16.031Z,13.13
2017-08-03T20:53:44.120Z,13.67
2017-08-03T20:56:12.212Z,13.13
2017-08-03T20:58:40.303Z,13.47
2017-08-03T21:01:08.396Z,12.43
2017-08-03T21:03:36.522Z,11.23
2017-08-03T21:06:04.607Z,11.57
2017-08-03T21:08:32.690Z,11.00
2017-08-03T21:11:00.780Z,10.10
2017-08-03T21:13:28.912Z,10.43
2017-08-03T21:15:56.971Z,8.53
2017-08-03T21:18:25.068Z,9.20
2017-08-03T21:20:53.175Z,9.03
2017-08-03T21:23:21.273Z,9.30
2017-08-03T21:25:49.358Z,9.77
2017-08-03T21:28:17.450Z,9.83
2017-08-03T21:30:45.528Z,9.13
2017-08-03T21:33:13.608Z,10.40
2017-08-03T21:35:41.697Z,9.67
2017-08-03T21:38:09.778Z,8.53
2017-08-03T21:40:37.862Z,10.20
2017-08-03T21:43:05.999Z,8.20
2017-08-03T21:45:34.059Z,8.80
2017-08-03T21:48:02.140Z,10.10
2017-08-03T21:50:30.228Z,8.93
2017-08-03T21:52:58.316Z,8.07
2017-08-03T21:55:26.403Z,8.47
2017-08-03T21:57:54.475Z,7.90
2017-08-03T22:00:34.351Z,8.77
2017-08-03T22:03:02.420Z,9.50
2017-08-03T22:05:30.500Z,8.73
2017-08-03T22:07:58.596Z,9.67
2017-08-03T22:10:26.663Z,9.83
2017-08-03T22:12:54.752Z,9.47
2017-08-03T22:15:22.923Z,9.27
2017-08-03T22:17:51.154Z,9.60
2017-08-03T22:20:19.240Z,9.47
2017-08-03T22:22:47.322Z,9.50
2017-08-03T22:25:15.391Z,9.93
2017-08-03T22:27:43.492Z,10.43
2017-08-03T22:30:11.571Z,10.30
2017-08-03T22:32:39.654Z,11.20
2017-08-03T22:35:07.754Z,12.33
2017-08-03T22:37:35.846Z,10.40
2017-08-03T22:40:03.940Z,11.57
2017-08-03T22:42:32.036Z,11.53
2017-08-03T22:45:00.117Z,12.80
2017-08-03T22:47:28.208Z,11.70
2017-08-03T22:49:56.478Z,11.73
2017-08-03T22:52:24.638Z,10.80
2017-08-03T22:54:52.714Z,12.00
2017-08-03T22:57:20.967Z,10.43
2017-08-03T22:59:49.051Z,12.87
2017-08-03T23:02:17.228Z,12.47
2017-08-03T23:04:45.318Z,10.77
2017-08-03T23:07:13.430Z,10.60
2017-08-03T23:09:42.269Z,12.60
2017-08-03T23:12:10.359Z,11.33
2017-08-03T23:14:38.482Z,11.27
2017-08-03T23:17:06.576Z,10.53
2017-08-03T23:19:34.662Z,11.70
2017-08-03T23:22:02.764Z,12.30
2017-08-03T23:24:30.839Z,11.07
2017-08-03T23:26:58.959Z,10.83
2017-08-03T23:29:27.047Z,9.40
2017-08-03T23:31:58.131Z,9.03
2017-08-03T23:34:26.221Z,7.90
2017-08-03T23:36:54.299Z,7.57
2017-08-03T23:39:22.392Z,8.50
2017-08-03T23:41:50.463Z,6.37
2017-08-03T23:44:18.549Z,6.40
2017-08-03T23:46:46.615Z,7.10
2017-08-03T23:49:14.696Z,7.30
2017-08-03T23:51:42.767Z,10.20
2017-08-03T23:54:11.092Z,6.70
2017-08-03T23:56:39.172Z,5.57
2017-08-03T23:59:07.243Z,5.70
